sensor_id;sensor_type;location;lat;lon;timestamp;pressure;altitude;pressure_sealevel;temperature;humidity
7050;BME280;22263;52.260;10.548;2023-06-22T00:01:11;100758.53;;;23.37;100.00
7050;BME280;22263;52.260;10.548;2023-06-22T00:03:40;100757.63;;;23.40;100.00
7050;BME280;22263;52.260;10.548;2023-06-22T00:06:10;100762.94;;;23.38;100.00
7050;BME280;22263;52.260;10.548;2023-06-22T00:08:40;100767.00;;;23.37;100.00
7050;BME280;22263;52.260;10.548;2023-06-22T00:11:10;100769.44;;;23.26;100.00
7050;BME280;22263;52.260;10.548;2023-06-22T00:13:44;100763.13;;;23.22;100.00
7050;BME280;22263;52.260;10.548;2023-06-22T00:16:15;100755.84;;;23.12;100.00
7050;BME280;22263;52.260;10.548;2023-06-22T00:18:45;100756.75;;;23.09;100.00
7050;BME280;22263;52.260;10.548;2023-06-22T00:21:15;100773.28;;;22.97;100.00
7050;BME280;22263;52.260;10.548;2023-06-22T00:23:47;100763.75;;;22.82;100.00
7050;BME280;22263;52.260;10.548;2023-06-22T00:26:20;100775.28;;;22.75;100.00
7050;BME280;22263;52.260;10.548;2023-06-22T00:28:55;100765.94;;;22.53;100.00
7050;BME280;22263;52.260;10.548;2023-06-22T00:31:25;100781.19;;;22.43;100.00
7050;BME280;22263;52.260;10.548;2023-06-22T00:33:55;100783.53;;;22.32;100.00
7050;BME280;22263;52.260;10.548;2023-06-22T00:36:25;100791.31;;;22.40;100.00
7050;BME280;22263;52.260;10.548;2023-06-22T00:38:56;100790.31;;;22.34;100.00
7050;BME280;22263;52.260;10.548;2023-06-22T00:41:29;100793.78;;;22.26;100.00
7050;BME280;22263;52.260;10.548;2023-06-22T00:44:01;100793.91;;;22.22;100.00
7050;BME280;22263;52.260;10.548;2023-06-22T00:46:31;100796.75;;;22.09;100.00
7050;BME280;22263;52.260;10.548;2023-06-22T00:49:01;100793.00;;;22.12;100.00
7050;BME280;22263;52.260;10.548;2023-06-22T00:51:32;100799.09;;;22.11;100.00
7050;BME280;22263;52.260;10.548;2023-06-22T00:54:05;100796.75;;;22.22;100.00
7050;BME280;22263;52.260;10.548;2023-06-22T00:56:35;100797.28;;;22.17;100.00
7050;BME280;22263;52.260;10.548;2023-06-22T00:59:07;100785.22;;;22.16;100.00
7050;BME280;22263;52.260;10.548;2023-06-22T01:01:40;100793.47;;;22.24;100.00
7050;BME280;22263;52.260;10.548;2023-06-22T01:04:10;100785.47;;;22.22;100.00
7050;BME280;22263;52.260;10.548;2023-06-22T01:06:56;100783.69;;;22.15;100.00
7050;BME280;22263;52.260;10.548;2023-06-22T01:09:35;100778.13;;;22.12;100.00
7050;BME280;22263;52.260;10.548;2023-06-22T01:12:09;100779.97;;;22.06;100.00
7050;BME280;22263;52.260;10.548;2023-06-22T01:14:52;100773.53;;;22.05;100.00
7050;BME280;22263;52.260;10.548;2023-06-22T01:17:25;100764.63;;;21.94;100.00
7050;BME280;22263;52.260;10.548;2023-06-22T01:20:00;100770.53;;;21.84;100.00
7050;BME280;22263;52.260;10.548;2023-06-22T01:22:46;100760.31;;;21.77;100.00
7050;BME280;22263;52.260;10.548;2023-06-22T01:25:23;100752.97;;;21.67;100.00
7050;BME280;22263;52.260;10.548;2023-06-22T01:28:02;100758.25;;;21.65;100.00
7050;BME280;22263;52.260;10.548;2023-06-22T01:30:37;100751.16;;;21.60;100.00
7050;BME280;22263;52.260;10.548;2023-06-22T01:33:10;100764.09;;;21.58;100.00
7050;BME280;22263;52.260;10.548;2023-06-22T01:35:41;100769.94;;;21.51;100.00
7050;BME280;22263;52.260;10.548;2023-06-22T01:38:11;100760.69;;;21.50;100.00
7050;BME280;22263;52.260;10.548;2023-06-22T01:40:41;100756.28;;;21.49;100.00
7050;BME280;22263;52.260;10.548;2023-06-22T01:43:11;100746.50;;;21.41;100.00
7050;BME280;22263;52.260;10.548;2023-06-22T01:45:44;100747.28;;;21.42;100.00
7050;BME280;22263;52.260;10.548;2023-06-22T01:48:14;100748.94;;;21.39;100.00
7050;BME280;22263;52.260;10.548;2023-06-22T01:50:45;100746.25;;;21.36;100.00
7050;BME280;22263;52.260;10.548;2023-06-22T01:53:14;100747.47;;;21.35;100.00
7050;BME280;22263;52.260;10.548;2023-06-22T01:55:44;100753.66;;;21.29;100.00
7050;BME280;22263;52.260;10.548;2023-06-22T01:58:15;100748.38;;;21.31;100.00
7050;BME280;22263;52.260;10.548;2023-06-22T02:00:50;100749.72;;;21.27;100.00
7050;BME280;22263;52.260;10.548;2023-06-22T02:03:26;100746.34;;;21.19;100.00
7050;BME280;22263;52.260;10.548;2023-06-22T02:06:03;100750.03;;;21.16;100.00
7050;BME280;22263;52.260;10.548;2023-06-22T02:08:41;100751.59;;;21.17;100.00
7050;BME280;22263;52.260;10.548;2023-06-22T02:11:13;100754.34;;;21.05;100.00
7050;BME280;22263;52.260;10.548;2023-06-22T02:13:45;100750.50;;;20.99;100.00
7050;BME280;22263;52.260;10.548;2023-06-22T02:16:18;100742.16;;;20.95;100.00
7050;BME280;22263;52.260;10.548;2023-06-22T02:18:48;100742.78;;;20.86;100.00
7050;BME280;22263;52.260;10.548;2023-06-22T02:21:20;100744.47;;;20.84;100.00
7050;BME280;22263;52.260;10.548;2023-06-22T02:23:50;100748.41;;;20.86;100.00
7050;BME280;22263;52.260;10.548;2023-06-22T02:26:21;100752.00;;;20.87;100.00
7050;BME280;22263;52.260;10.548;2023-06-22T02:28:53;100756.06;;;20.86;100.00
7050;BME280;22263;52.260;10.548;2023-06-22T02:31:25;100744.56;;;20.80;100.00
7050;BME280;22263;52.260;10.548;2023-06-22T02:33:58;100754.28;;;20.92;100.00
7050;BME280;22263;52.260;10.548;2023-06-22T02:36:27;100755.44;;;20.78;100.00
7050;BME280;22263;52.260;10.548;2023-06-22T02:39:00;100757.72;;;20.83;100.00
7050;BME280;22263;52.260;10.548;2023-06-22T02:41:30;100752.22;;;20.80;100.00
7050;BME280;22263;52.260;10.548;2023-06-22T02:44:00;100758.69;;;20.77;100.00
7050;BME280;22263;52.260;10.548;2023-06-22T02:46:33;100761.44;;;20.80;100.00
7050;BME280;22263;52.260;10.548;2023-06-22T02:49:02;100765.47;;;20.79;100.00
7050;BME280;22263;52.260;10.548;2023-06-22T02:51:33;100760.97;;;20.82;100.00
7050;BME280;22263;52.260;10.548;2023-06-22T02:54:04;100764.69;;;20.79;100.00
7050;BME280;22263;52.260;10.548;2023-06-22T02:56:34;100773.22;;;20.75;100.00
7050;BME280;22263;52.260;10.548;2023-06-22T02:59:03;100771.72;;;20.71;100.00
7050;BME280;22263;52.260;10.548;2023-06-22T03:01:40;100773.53;;;20.77;100.00
7050;BME280;22263;52.260;10.548;2023-06-22T03:04:17;100779.09;;;20.81;100.00
7050;BME280;22263;52.260;10.548;2023-06-22T03:06:47;100787.53;;;20.81;100.00
7050;BME280;22263;52.260;10.548;2023-06-22T03:09:20;100793.91;;;20.81;100.00
7050;BME280;22263;52.260;10.548;2023-06-22T03:11:50;100801.38;;;20.88;100.00
7050;BME280;22263;52.260;10.548;2023-06-22T03:14:20;100802.06;;;20.92;100.00
7050;BME280;22263;52.260;10.548;2023-06-22T03:16:54;100795.13;;;20.97;100.00
7050;BME280;22263;52.260;10.548;2023-06-22T03:19:28;100809.44;;;21.02;100.00
7050;BME280;22263;52.260;10.548;2023-06-22T03:21:59;100804.72;;;20.99;100.00
7050;BME280;22263;52.260;10.548;2023-06-22T03:24:29;100808.59;;;21.05;100.00
7050;BME280;22263;52.260;10.548;2023-06-22T03:27:01;100811.47;;;21.02;100.00
7050;BME280;22263;52.260;10.548;2023-06-22T03:29:33;100817.03;;;21.05;100.00
7050;BME280;22263;52.260;10.548;2023-06-22T03:32:10;100811.97;;;21.13;100.00
7050;BME280;22263;52.260;10.548;2023-06-22T03:34:40;100817.19;;;21.14;100.00
7050;BME280;22263;52.260;10.548;2023-06-22T03:37:14;100823.66;;;21.11;100.00
7050;BME280;22263;52.260;10.548;2023-06-22T03:39:44;100832.16;;;20.95;100.00
7050;BME280;22263;52.260;10.548;2023-06-22T03:42:15;100824.19;;;21.06;100.00
7050;BME280;22263;52.260;10.548;2023-06-22T03:44:46;100824.47;;;21.12;100.00
7050;BME280;22263;52.260;10.548;2023-06-22T03:47:18;100825.66;;;21.14;100.00
7050;BME280;22263;52.260;10.548;2023-06-22T03:49:48;100822.72;;;21.18;100.00
7050;BME280;22263;52.260;10.548;2023-06-22T03:52:22;100819.81;;;21.21;100.00
7050;BME280;22263;52.260;10.548;2023-06-22T03:54:52;100825.78;;;21.23;100.00
7050;BME280;22263;52.260;10.548;2023-06-22T03:57:21;100825.59;;;21.30;100.00
7050;BME280;22263;52.260;10.548;2023-06-22T03:59:51;100825.25;;;21.28;100.00
7050;BME280;22263;52.260;10.548;2023-06-22T04:02:24;100825.03;;;21.36;100.00
7050;BME280;22263;52.260;10.548;2023-06-22T04:04:53;100818.38;;;21.29;100.00
7050;BME280;22263;52.260;10.548;2023-06-22T04:07:23;100814.47;;;21.40;100.00
7050;BME280;22263;52.260;10.548;2023-06-22T04:09:53;100810.97;;;21.36;100.00
7050;BME280;22263;52.260;10.548;2023-06-22T04:12:23;100807.28;;;21.39;100.00
7050;BME280;22263;52.260;10.548;2023-06-22T04:14:53;100799.31;;;21.50;100.00
7050;BME280;22263;52.260;10.548;2023-06-22T04:17:25;100795.94;;;21.55;100.00
7050;BME280;22263;52.260;10.548;2023-06-22T04:19:55;100791.66;;;21.50;100.00
7050;BME280;22263;52.260;10.548;2023-06-22T04:22:24;100792.69;;;21.56;100.00
7050;BME280;22263;52.260;10.548;2023-06-22T04:24:54;100791.00;;;21.59;100.00
7050;BME280;22263;52.260;10.548;2023-06-22T04:27:24;100791.72;;;21.63;100.00
7050;BME280;22263;52.260;10.548;2023-06-22T04:29:54;100788.56;;;21.73;100.00
7050;BME280;22263;52.260;10.548;2023-06-22T04:32:29;100791.59;;;21.79;100.00
7050;BME280;22263;52.260;10.548;2023-06-22T04:34:59;100785.41;;;21.84;100.00
7050;BME280;22263;52.260;10.548;2023-06-22T04:37:31;100784.31;;;21.82;100.00
7050;BME280;22263;52.260;10.548;2023-06-22T04:40:01;100782.84;;;21.90;100.00
7050;BME280;22263;52.260;10.548;2023-06-22T04:42:33;100789.22;;;21.77;100.00
7050;BME280;22263;52.260;10.548;2023-06-22T04:45:04;100785.53;;;21.81;100.00
7050;BME280;22263;52.260;10.548;2023-06-22T04:47:37;100786.72;;;21.96;100.00
7050;BME280;22263;52.260;10.548;2023-06-22T04:50:07;100786.00;;;21.92;100.00
7050;BME280;22263;52.260;10.548;2023-06-22T04:52:37;100783.75;;;21.87;100.00
7050;BME280;22263;52.260;10.548;2023-06-22T04:55:07;100780.97;;;21.99;100.00
7050;BME280;22263;52.260;10.548;2023-06-22T04:57:41;100780.59;;;21.97;100.00
7050;BME280;22263;52.260;10.548;2023-06-22T05:00:16;100775.09;;;22.06;100.00
7050;BME280;22263;52.260;10.548;2023-06-22T05:02:52;100784.56;;;22.12;100.00
7050;BME280;22263;52.260;10.548;2023-06-22T05:05:43;100782.06;;;21.89;100.00
7050;BME280;22263;52.260;10.548;2023-06-22T05:08:13;100782.97;;;22.11;100.00
7050;BME280;22263;52.260;10.548;2023-06-22T05:10:43;100785.91;;;22.08;100.00
7050;BME280;22263;52.260;10.548;2023-06-22T05:13:31;100781.63;;;22.16;100.00
7050;BME280;22263;52.260;10.548;2023-06-22T05:16:00;100787.41;;;22.25;100.00
7050;BME280;22263;52.260;10.548;2023-06-22T05:18:33;100779.38;;;22.24;100.00
7050;BME280;22263;52.260;10.548;2023-06-22T05:21:03;100784.44;;;22.16;100.00
7050;BME280;22263;52.260;10.548;2023-06-22T05:23:33;100779.94;;;22.31;100.00
7050;BME280;22263;52.260;10.548;2023-06-22T05:26:03;100774.06;;;22.38;100.00
7050;BME280;22263;52.260;10.548;2023-06-22T05:28:50;100774.31;;;22.44;100.00
7050;BME280;22263;52.260;10.548;2023-06-22T05:31:33;100774.28;;;22.56;100.00
7050;BME280;22263;52.260;10.548;2023-06-22T05:34:20;100772.00;;;22.64;100.00
7050;BME280;22263;52.260;10.548;2023-06-22T05:36:49;100782.50;;;22.76;100.00
7050;BME280;22263;52.260;10.548;2023-06-22T05:39:19;100773.31;;;22.85;100.00
7050;BME280;22263;52.260;10.548;2023-06-22T05:41:49;100776.78;;;23.01;100.00
7050;BME280;22263;52.260;10.548;2023-06-22T05:44:19;100767.47;;;23.14;100.00
7050;BME280;22263;52.260;10.548;2023-06-22T05:46:48;100767.53;;;23.23;100.00
7050;BME280;22263;52.260;10.548;2023-06-22T05:49:21;100761.69;;;23.39;100.00
7050;BME280;22263;52.260;10.548;2023-06-22T05:51:56;100758.16;;;23.26;100.00
7050;BME280;22263;52.260;10.548;2023-06-22T05:54:27;100749.63;;;23.38;100.00
7050;BME280;22263;52.260;10.548;2023-06-22T05:56:57;100750.25;;;23.42;100.00
7050;BME280;22263;52.260;10.548;2023-06-22T05:59:27;100759.88;;;23.45;100.00
7050;BME280;22263;52.260;10.548;2023-06-22T06:01:56;100754.81;;;23.40;100.00
7050;BME280;22263;52.260;10.548;2023-06-22T06:04:29;100762.09;;;23.50;100.00
7050;BME280;22263;52.260;10.548;2023-06-22T06:06:59;100761.19;;;23.53;100.00
7050;BME280;22263;52.260;10.548;2023-06-22T06:09:28;100755.78;;;23.68;100.00
7050;BME280;22263;52.260;10.548;2023-06-22T06:11:58;100752.38;;;23.73;100.00
7050;BME280;22263;52.260;10.548;2023-06-22T06:14:29;100762.47;;;23.83;100.00
7050;BME280;22263;52.260;10.548;2023-06-22T06:16:59;100752.34;;;24.04;100.00
7050;BME280;22263;52.260;10.548;2023-06-22T06:19:31;100761.44;;;24.08;100.00
7050;BME280;22263;52.260;10.548;2023-06-22T06:22:01;100756.09;;;24.01;100.00
7050;BME280;22263;52.260;10.548;2023-06-22T06:24:31;100753.91;;;24.05;100.00
7050;BME280;22263;52.260;10.548;2023-06-22T06:27:01;100754.81;;;23.93;100.00
7050;BME280;22263;52.260;10.548;2023-06-22T06:29:31;100748.38;;;23.92;100.00
7050;BME280;22263;52.260;10.548;2023-06-22T06:32:01;100753.88;;;23.96;100.00
7050;BME280;22263;52.260;10.548;2023-06-22T06:34:34;100751.41;;;24.07;100.00
7050;BME280;22263;52.260;10.548;2023-06-22T06:37:04;100752.38;;;24.13;100.00
7050;BME280;22263;52.260;10.548;2023-06-22T06:39:33;100748.00;;;24.12;100.00
7050;BME280;22263;52.260;10.548;2023-06-22T06:42:05;100746.34;;;23.93;100.00
7050;BME280;22263;52.260;10.548;2023-06-22T06:44:35;100752.13;;;24.20;100.00
7050;BME280;22263;52.260;10.548;2023-06-22T06:47:05;100748.84;;;24.21;100.00
7050;BME280;22263;52.260;10.548;2023-06-22T06:49:37;100751.44;;;24.16;100.00
7050;BME280;22263;52.260;10.548;2023-06-22T06:52:07;100744.44;;;24.20;100.00
7050;BME280;22263;52.260;10.548;2023-06-22T06:54:37;100757.34;;;24.30;100.00
7050;BME280;22263;52.260;10.548;2023-06-22T06:57:08;100760.81;;;24.44;100.00
7050;BME280;22263;52.260;10.548;2023-06-22T06:59:40;100766.97;;;24.51;100.00
7050;BME280;22263;52.260;10.548;2023-06-22T07:02:10;100758.34;;;24.15;100.00
7050;BME280;22263;52.260;10.548;2023-06-22T07:04:44;100760.63;;;24.29;100.00
7050;BME280;22263;52.260;10.548;2023-06-22T07:07:14;100761.09;;;24.37;100.00
7050;BME280;22263;52.260;10.548;2023-06-22T07:09:43;100759.25;;;24.43;100.00
7050;BME280;22263;52.260;10.548;2023-06-22T07:12:13;100757.56;;;24.54;100.00
7050;BME280;22263;52.260;10.548;2023-06-22T07:14:43;100760.25;;;24.85;100.00
7050;BME280;22263;52.260;10.548;2023-06-22T07:17:13;100749.00;;;25.03;100.00
7050;BME280;22263;52.260;10.548;2023-06-22T07:19:45;100759.03;;;24.95;100.00
7050;BME280;22263;52.260;10.548;2023-06-22T07:22:15;100752.28;;;25.11;100.00
7050;BME280;22263;52.260;10.548;2023-06-22T07:24:45;100757.47;;;25.12;100.00
7050;BME280;22263;52.260;10.548;2023-06-22T07:27:16;100748.66;;;25.19;100.00
7050;BME280;22263;52.260;10.548;2023-06-22T07:29:46;100752.09;;;25.51;100.00
7050;BME280;22263;52.260;10.548;2023-06-22T07:32:16;100740.44;;;25.58;100.00
7050;BME280;22263;52.260;10.548;2023-06-22T07:34:48;100748.25;;;25.72;100.00
7050;BME280;22263;52.260;10.548;2023-06-22T07:37:21;100742.28;;;25.79;100.00
7050;BME280;22263;52.260;10.548;2023-06-22T07:39:51;100742.66;;;25.96;100.00
7050;BME280;22263;52.260;10.548;2023-06-22T07:42:25;100734.44;;;26.07;100.00
7050;BME280;22263;52.260;10.548;2023-06-22T07:45:00;100734.09;;;26.23;100.00
7050;BME280;22263;52.260;10.548;2023-06-22T07:47:30;100735.97;;;26.17;100.00
7050;BME280;22263;52.260;10.548;2023-06-22T07:50:05;100741.22;;;26.42;100.00
7050;BME280;22263;52.260;10.548;2023-06-22T07:52:35;100731.47;;;26.82;100.00
7050;BME280;22263;52.260;10.548;2023-06-22T07:55:06;100727.63;;;26.94;100.00
7050;BME280;22263;52.260;10.548;2023-06-22T07:57:36;100723.63;;;27.15;100.00
7050;BME280;22263;52.260;10.548;2023-06-22T08:00:06;100721.69;;;26.83;100.00
7050;BME280;22263;52.260;10.548;2023-06-22T08:02:40;100716.59;;;27.25;100.00
7050;BME280;22263;52.260;10.548;2023-06-22T08:05:13;100718.16;;;28.00;100.00
7050;BME280;22263;52.260;10.548;2023-06-22T08:07:48;100718.38;;;28.31;100.00
7050;BME280;22263;52.260;10.548;2023-06-22T08:10:18;100718.78;;;27.60;100.00
7050;BME280;22263;52.260;10.548;2023-06-22T08:12:48;100731.31;;;27.68;100.00
7050;BME280;22263;52.260;10.548;2023-06-22T08:15:18;100713.06;;;27.45;100.00
7050;BME280;22263;52.260;10.548;2023-06-22T08:17:48;100724.44;;;27.45;100.00
7050;BME280;22263;52.260;10.548;2023-06-22T08:20:22;100725.41;;;27.27;100.00
7050;BME280;22263;52.260;10.548;2023-06-22T08:22:55;100729.59;;;26.79;100.00
7050;BME280;22263;52.260;10.548;2023-06-22T08:25:27;100731.91;;;26.89;100.00
7050;BME280;22263;52.260;10.548;2023-06-22T08:27:57;100729.63;;;27.17;100.00
7050;BME280;22263;52.260;10.548;2023-06-22T08:30:27;100723.47;;;27.33;100.00
7050;BME280;22263;52.260;10.548;2023-06-22T08:32:57;100738.16;;;27.32;100.00
7050;BME280;22263;52.260;10.548;2023-06-22T08:35:29;100727.47;;;27.42;100.00
7050;BME280;22263;52.260;10.548;2023-06-22T08:37:59;100728.06;;;27.46;100.00
7050;BME280;22263;52.260;10.548;2023-06-22T08:40:29;100729.94;;;27.63;100.00
7050;BME280;22263;52.260;10.548;2023-06-22T08:42:59;100722.50;;;27.66;100.00
7050;BME280;22263;52.260;10.548;2023-06-22T08:45:28;100730.94;;;27.75;100.00
7050;BME280;22263;52.260;10.548;2023-06-22T08:48:01;100728.09;;;27.75;100.00
7050;BME280;22263;52.260;10.548;2023-06-22T08:50:34;100729.16;;;27.77;100.00
7050;BME280;22263;52.260;10.548;2023-06-22T08:53:04;100733.28;;;27.91;100.00
7050;BME280;22263;52.260;10.548;2023-06-22T08:55:33;100721.25;;;28.02;100.00
7050;BME280;22263;52.260;10.548;2023-06-22T08:58:03;100723.16;;;27.90;100.00
7050;BME280;22263;52.260;10.548;2023-06-22T09:00:33;100727.66;;;28.11;100.00
7050;BME280;22263;52.260;10.548;2023-06-22T09:03:04;100732.47;;;28.40;100.00
7050;BME280;22263;52.260;10.548;2023-06-22T09:05:37;100733.03;;;28.44;100.00
7050;BME280;22263;52.260;10.548;2023-06-22T09:08:07;100724.31;;;27.98;100.00
7050;BME280;22263;52.260;10.548;2023-06-22T09:10:37;100715.34;;;27.85;100.00
7050;BME280;22263;52.260;10.548;2023-06-22T09:13:07;100721.06;;;28.20;100.00
7050;BME280;22263;52.260;10.548;2023-06-22T09:15:36;100714.25;;;27.83;100.00
7050;BME280;22263;52.260;10.548;2023-06-22T09:18:10;100706.13;;;27.75;100.00
7050;BME280;22263;52.260;10.548;2023-06-22T09:20:43;100701.81;;;27.80;100.00
7050;BME280;22263;52.260;10.548;2023-06-22T09:23:14;100698.59;;;28.07;100.00
7050;BME280;22263;52.260;10.548;2023-06-22T09:25:44;100688.69;;;28.17;100.00
7050;BME280;22263;52.260;10.548;2023-06-22T09:28:14;100685.50;;;28.50;100.00
7050;BME280;22263;52.260;10.548;2023-06-22T09:30:44;100681.25;;;29.07;100.00
7050;BME280;22263;52.260;10.548;2023-06-22T09:33:14;100678.69;;;29.60;100.00
7050;BME280;22263;52.260;10.548;2023-06-22T09:35:49;100673.31;;;29.68;100.00
7050;BME280;22263;52.260;10.548;2023-06-22T09:38:19;100664.38;;;29.86;100.00
7050;BME280;22263;52.260;10.548;2023-06-22T09:40:49;100659.75;;;29.94;100.00
7050;BME280;22263;52.260;10.548;2023-06-22T09:43:18;100661.09;;;29.99;100.00
7050;BME280;22263;52.260;10.548;2023-06-22T09:45:48;100660.66;;;30.17;100.00
7050;BME280;22263;52.260;10.548;2023-06-22T09:48:18;100658.50;;;29.64;100.00
7050;BME280;22263;52.260;10.548;2023-06-22T09:50:50;100649.72;;;30.52;100.00
7050;BME280;22263;52.260;10.548;2023-06-22T09:53:20;100654.34;;;30.44;100.00
7050;BME280;22263;52.260;10.548;2023-06-22T09:55:50;100647.91;;;30.49;99.71
7050;BME280;22263;52.260;10.548;2023-06-22T09:58:19;100661.75;;;30.73;96.81
7050;BME280;22263;52.260;10.548;2023-06-22T10:00:49;100664.44;;;30.40;97.83
7050;BME280;22263;52.260;10.548;2023-06-22T10:03:19;100673.19;;;30.25;100.00
7050;BME280;22263;52.260;10.548;2023-06-22T10:05:52;100663.53;;;30.17;100.00
7050;BME280;22263;52.260;10.548;2023-06-22T10:08:22;100666.63;;;30.13;100.00
7050;BME280;22263;52.260;10.548;2023-06-22T10:10:52;100658.38;;;30.26;100.00
7050;BME280;22263;52.260;10.548;2023-06-22T10:13:22;100653.22;;;31.01;94.31
7050;BME280;22263;52.260;10.548;2023-06-22T10:15:51;100648.84;;;31.05;91.50
7050;BME280;22263;52.260;10.548;2023-06-22T10:18:21;100652.06;;;29.69;100.00
7050;BME280;22263;52.260;10.548;2023-06-22T10:20:53;100650.41;;;30.42;99.11
7050;BME280;22263;52.260;10.548;2023-06-22T10:23:24;100652.09;;;30.11;100.00
7050;BME280;22263;52.260;10.548;2023-06-22T10:25:53;100648.69;;;30.02;100.00
7050;BME280;22263;52.260;10.548;2023-06-22T10:28:25;100651.25;;;30.00;100.00
7050;BME280;22263;52.260;10.548;2023-06-22T10:30:58;100653.53;;;29.90;100.00
7050;BME280;22263;52.260;10.548;2023-06-22T10:33:28;100649.75;;;29.73;100.00
7050;BME280;22263;52.260;10.548;2023-06-22T10:36:00;100652.81;;;29.64;100.00
7050;BME280;22263;52.260;10.548;2023-06-22T10:38:30;100655.13;;;29.65;100.00
7050;BME280;22263;52.260;10.548;2023-06-22T10:41:00;100652.56;;;29.67;100.00
7050;BME280;22263;52.260;10.548;2023-06-22T10:43:30;100653.19;;;29.82;100.00
7050;BME280;22263;52.260;10.548;2023-06-22T10:45:59;100652.75;;;29.58;100.00
7050;BME280;22263;52.260;10.548;2023-06-22T10:48:29;100643.91;;;29.56;100.00
7050;BME280;22263;52.260;10.548;2023-06-22T10:51:02;100640.25;;;29.87;100.00
7050;BME280;22263;52.260;10.548;2023-06-22T10:53:32;100634.97;;;30.70;96.03
7050;BME280;22263;52.260;10.548;2023-06-22T10:56:01;100623.63;;;31.82;85.64
7050;BME280;22263;52.260;10.548;2023-06-22T10:58:31;100615.81;;;31.88;82.06
7050;BME280;22263;52.260;10.548;2023-06-22T11:01:01;100619.16;;;32.09;83.83
7050;BME280;22263;52.260;10.548;2023-06-22T11:03:31;100617.00;;;32.31;78.01
7050;BME280;22263;52.260;10.548;2023-06-22T11:06:03;100613.75;;;33.04;71.56
7050;BME280;22263;52.260;10.548;2023-06-22T11:08:33;100598.91;;;34.75;58.85
7050;BME280;22263;52.260;10.548;2023-06-22T11:11:03;100600.88;;;34.99;55.21
7050;BME280;22263;52.260;10.548;2023-06-22T11:13:33;100610.50;;;34.27;57.64
7050;BME280;22263;52.260;10.548;2023-06-22T11:16:03;100604.47;;;35.37;54.55
7050;BME280;22263;52.260;10.548;2023-06-22T11:18:33;100610.13;;;36.01;50.47
7050;BME280;22263;52.260;10.548;2023-06-22T11:21:05;100604.91;;;35.86;50.17
7050;BME280;22263;52.260;10.548;2023-06-22T11:23:35;100599.16;;;35.09;54.80
7050;BME280;22263;52.260;10.548;2023-06-22T11:26:05;100602.31;;;34.12;58.92
7050;BME280;22263;52.260;10.548;2023-06-22T11:28:34;100592.34;;;34.56;56.84
7050;BME280;22263;52.260;10.548;2023-06-22T11:31:04;100587.63;;;35.28;49.43
7050;BME280;22263;52.260;10.548;2023-06-22T11:33:52;100574.03;;;35.28;51.45
7050;BME280;22263;52.260;10.548;2023-06-22T11:36:25;100573.44;;;35.88;48.68
7050;BME280;22263;52.260;10.548;2023-06-22T11:38:56;100575.78;;;35.76;46.88
7050;BME280;22263;52.260;10.548;2023-06-22T11:41:25;100574.88;;;35.95;45.80
7050;BME280;22263;52.260;10.548;2023-06-22T11:43:55;100572.88;;;35.63;46.59
7050;BME280;22263;52.260;10.548;2023-06-22T11:46:25;100552.59;;;34.60;50.70
7050;BME280;22263;52.260;10.548;2023-06-22T11:48:54;100547.94;;;35.39;47.20
7050;BME280;22263;52.260;10.548;2023-06-22T11:51:27;100539.13;;;35.77;45.53
7050;BME280;22263;52.260;10.548;2023-06-22T11:53:58;100537.06;;;36.38;43.88
7050;BME280;22263;52.260;10.548;2023-06-22T11:56:29;100538.00;;;36.53;44.67
7050;BME280;22263;52.260;10.548;2023-06-22T11:58:59;100527.81;;;36.05;46.79
7050;BME280;22263;52.260;10.548;2023-06-22T12:01:28;100535.13;;;36.53;45.76
7050;BME280;22263;52.260;10.548;2023-06-22T12:04:00;100532.00;;;36.04;45.12
7050;BME280;22263;52.260;10.548;2023-06-22T12:06:37;100534.72;;;35.31;46.82
7050;BME280;22263;52.260;10.548;2023-06-22T12:09:09;100521.84;;;34.55;48.42
7050;BME280;22263;52.260;10.548;2023-06-22T12:11:40;100527.91;;;34.33;49.64
7050;BME280;22263;52.260;10.548;2023-06-22T12:14:10;100506.41;;;34.58;49.63
7050;BME280;22263;52.260;10.548;2023-06-22T12:16:40;100510.78;;;34.78;49.67
7050;BME280;22263;52.260;10.548;2023-06-22T12:19:11;100503.31;;;34.37;50.81
7050;BME280;22263;52.260;10.548;2023-06-22T12:21:43;100492.31;;;34.73;50.26
7050;BME280;22263;52.260;10.548;2023-06-22T12:24:13;100497.88;;;33.72;53.39
7050;BME280;22263;52.260;10.548;2023-06-22T12:26:42;100491.75;;;33.38;53.20
7050;BME280;22263;52.260;10.548;2023-06-22T12:29:12;100504.28;;;32.75;59.52
7050;BME280;22263;52.260;10.548;2023-06-22T12:31:42;100485.16;;;32.89;60.84
7050;BME280;22263;52.260;10.548;2023-06-22T12:34:12;100485.53;;;34.39;54.55
7050;BME280;22263;52.260;10.548;2023-06-22T12:36:44;100477.88;;;35.76;47.86
7050;BME280;22263;52.260;10.548;2023-06-22T12:39:15;100475.56;;;35.75;47.36
7050;BME280;22263;52.260;10.548;2023-06-22T12:41:45;100474.06;;;36.08;46.35
7050;BME280;22263;52.260;10.548;2023-06-22T12:44:17;100467.69;;;35.62;46.86
7050;BME280;22263;52.260;10.548;2023-06-22T12:46:47;100466.47;;;35.84;46.95
7050;BME280;22263;52.260;10.548;2023-06-22T12:49:16;100468.59;;;35.70;45.87
7050;BME280;22263;52.260;10.548;2023-06-22T12:51:49;100457.50;;;35.35;48.21
7050;BME280;22263;52.260;10.548;2023-06-22T12:54:19;100460.84;;;35.52;47.14
7050;BME280;22263;52.260;10.548;2023-06-22T12:56:49;100456.25;;;35.04;48.92
7050;BME280;22263;52.260;10.548;2023-06-22T12:59:21;100453.47;;;34.67;49.60
7050;BME280;22263;52.260;10.548;2023-06-22T13:01:51;100448.34;;;33.90;53.35
7050;BME280;22263;52.260;10.548;2023-06-22T13:04:21;100448.88;;;33.70;56.87